Time;durP1;ratioP1;P1;durP2;ratioP2;P2;SDS_P1;SDS_P2;PMS_P1;PMS_P2;Temp;Humidity;BMP_temperature;BMP_pressure;BME280_temperature;BME280_humidity;BME280_pressure;Samples;Min_cycle;Max_cycle;Signal;HPM_P1;HPM_P2
2021/05/11 00:00:36;;;;;;;0.90;0.82;;;21.90;53.10;;;;;;3145858;28;20063;-81
2021/05/11 00:02:07;;;;;;;1.13;1.00;;;21.90;53.10;;;;;;3146341;28;20127;-81
2021/05/11 00:03:38;;;;;;;0.90;0.80;;;21.90;53.50;;;;;;3146969;28;20131;-81
2021/05/11 00:05:10;;;;;;;1.38;0.90;;;21.90;53.10;;;;;;3146995;28;20056;-82
2021/05/11 00:06:41;;;;;;;1.00;0.73;;;21.90;53.10;;;;;;3146467;28;20508;-81
2021/05/11 00:08:12;;;;;;;0.82;0.77;;;21.90;53.10;;;;;;3147042;28;20087;-80
2021/05/11 00:09:43;;;;;;;1.00;0.70;;;21.90;53.10;;;;;;3146491;28;20582;-79
2021/05/11 00:11:14;;;;;;;1.40;0.90;;;21.90;53.10;;;;;;3146383;28;20055;-81
2021/05/11 00:12:45;;;;;;;1.38;0.88;;;21.90;53.10;;;;;;3146535;28;20040;-81
2021/05/11 00:14:16;;;;;;;0.85;0.80;;;21.90;53.10;;;;;;3146364;28;20528;-80
2021/05/11 00:15:48;;;;;;;0.85;0.80;;;21.90;53.10;;;;;;3145936;28;20194;-81
2021/05/11 00:17:19;;;;;;;1.30;0.90;;;21.90;53.10;;;;;;3146246;28;20083;-80
2021/05/11 00:18:50;;;;;;;1.75;0.80;;;21.90;53.20;;;;;;3146891;28;20682;-81
2021/05/11 00:20:21;;;;;;;0.77;0.68;;;21.90;53.10;;;;;;3146391;28;20080;-80
2021/05/11 00:21:53;;;;;;;1.35;0.77;;;21.90;53.20;;;;;;3146349;28;20076;-81
2021/05/11 00:23:24;;;;;;;1.35;0.80;;;21.90;53.10;;;;;;3147040;28;20071;-81
2021/05/11 00:24:55;;;;;;;1.27;0.73;;;21.90;53.10;;;;;;3146737;28;20044;-82
2021/05/11 00:26:26;;;;;;;0.80;0.70;;;21.90;53.10;;;;;;3146079;28;20834;-81
2021/05/11 00:27:56;;;;;;;0.88;0.70;;;21.90;53.10;;;;;;3146929;28;20155;-83
2021/05/11 00:29:27;;;;;;;0.70;0.60;;;21.90;53.10;;;;;;3146545;28;20044;-82
2021/05/11 00:31:00;;;;;;;1.65;1.05;;;21.90;53.20;;;;;;3145865;28;20068;-81
2021/05/11 00:32:31;;;;;;;1.20;0.80;;;21.90;53.20;;;;;;3146105;28;20036;-82
2021/05/11 00:34:02;;;;;;;0.82;0.80;;;21.90;53.20;;;;;;3147145;28;20051;-81
2021/05/11 00:35:33;;;;;;;1.20;0.70;;;21.90;53.20;;;;;;3146711;28;20633;-81
2021/05/11 00:37:04;;;;;;;1.23;0.77;;;21.90;53.20;;;;;;3146105;28;20128;-81
2021/05/11 00:38:35;;;;;;;0.93;0.77;;;21.90;53.10;;;;;;3146627;28;20045;-82
2021/05/11 00:40:07;;;;;;;0.70;0.70;;;21.90;53.20;;;;;;3148890;28;20525;-80
2021/05/11 00:41:39;;;;;;;1.30;0.73;;;21.90;53.10;;;;;;3148623;28;20051;-82
2021/05/11 00:43:09;;;;;;;1.58;0.90;;;21.90;53.20;;;;;;3149095;28;20562;-83
2021/05/11 00:44:40;;;;;;;1.02;0.85;;;21.90;53.10;;;;;;3148788;28;20049;-83
2021/05/11 00:46:13;;;;;;;1.08;0.77;;;21.90;53.10;;;;;;3147859;28;20131;-80
2021/05/11 00:47:44;;;;;;;1.05;0.90;;;21.90;53.20;;;;;;3148918;28;20607;-81
2021/05/11 00:49:15;;;;;;;1.58;0.73;;;21.90;53.20;;;;;;3148957;28;20091;-79
2021/05/11 00:50:46;;;;;;;1.02;0.60;;;21.90;53.20;;;;;;3148947;28;20139;-82
2021/05/11 00:52:17;;;;;;;0.93;0.80;;;21.90;53.10;;;;;;3148414;28;20093;-80
2021/05/11 00:53:48;;;;;;;1.95;0.80;;;21.90;53.20;;;;;;3148840;28;20139;-81
2021/05/11 00:55:18;;;;;;;0.70;0.63;;;21.90;53.10;;;;;;3148908;28;20532;-80
2021/05/11 00:56:50;;;;;;;1.17;0.80;;;21.90;53.10;;;;;;3148379;28;20098;-82
2021/05/11 00:58:21;;;;;;;1.30;0.80;;;21.90;53.20;;;;;;3148514;28;20452;-80
2021/05/11 00:59:52;;;;;;;1.38;0.95;;;21.90;53.20;;;;;;3148524;28;20110;-81
2021/05/11 01:01:24;;;;;;;1.00;0.73;;;21.90;53.10;;;;;;3147626;28;20068;-80
2021/05/11 01:02:54;;;;;;;0.77;0.70;;;21.90;53.10;;;;;;3149107;28;20068;-81
2021/05/11 01:04:26;;;;;;;1.05;0.70;;;21.90;53.10;;;;;;3148711;28;20049;-81
2021/05/11 01:05:57;;;;;;;1.48;0.75;;;21.90;53.20;;;;;;3148853;28;20083;-81
2021/05/11 01:07:27;;;;;;;0.75;0.75;;;21.90;53.10;;;;;;3148399;28;20457;-81
2021/05/11 01:08:58;;;;;;;1.10;0.95;;;21.90;53.20;;;;;;3148880;28;20105;-80
2021/05/11 01:10:30;;;;;;;0.93;0.80;;;21.80;53.10;;;;;;3149038;28;20512;-82
2021/05/11 01:12:00;;;;;;;0.80;0.80;;;21.80;53.10;;;;;;3148885;28;20462;-81
2021/05/11 01:13:31;;;;;;;1.00;0.70;;;21.90;53.20;;;;;;3149370;28;20158;-81
2021/05/11 01:15:03;;;;;;;1.50;0.93;;;21.90;53.10;;;;;;3149484;28;20090;-82
2021/05/11 01:16:35;;;;;;;1.15;0.80;;;21.90;53.10;;;;;;3147801;28;20562;-81
2021/05/11 01:18:09;;;;;;;1.50;0.70;;;21.90;53.10;;;;;;3148889;28;20143;-80
2021/05/11 01:19:44;;;;;;;1.15;0.65;;;21.90;53.20;;;;;;3148458;28;20052;-81
2021/05/11 01:21:26;;;;;;;0.95;0.63;;;21.80;53.10;;;;;;3147830;28;20730;-82
2021/05/11 01:23:25;;;;;;;2.25;0.90;;;21.90;53.10;;;;;;3148895;28;20049;-81
2021/05/11 01:24:59;;;;;;;0.70;0.63;;;21.90;53.10;;;;;;3148576;28;20048;-81
2021/05/11 01:26:32;;;;;;;0.90;0.77;;;21.90;53.20;;;;;;3148122;28;20119;-82
2021/05/11 01:28:11;;;;;;;1.65;0.80;;;21.80;53.10;;;;;;3148826;28;20040;-80
2021/05/11 01:29:45;;;;;;;0.80;0.63;;;21.80;53.10;;;;;;3148176;28;20524;-82
2021/05/11 01:31:54;;;;;;;1.00;0.80;;;21.90;53.10;;;;;;3146958;28;20051;-81
2021/05/11 01:46:59;;;;;;;1.35;0.90;;;21.80;53.10;;;;;;3139255;28;20052;-81
2021/05/11 01:49:23;;;;;;;1.30;0.85;;;21.80;53.10;;;;;;3148488;28;20051;-81
2021/05/11 01:51:08;;;;;;;0.82;0.70;;;21.80;53.10;;;;;;3159889;28;20750;-81
2021/05/11 01:52:55;;;;;;;1.00;0.70;;;21.80;53.10;;;;;;3160265;28;20048;-79
2021/05/11 01:54:42;;;;;;;2.78;0.98;;;21.80;53.10;;;;;;3160803;28;20550;-80
2021/05/11 02:11:21;;;;;;;3.22;1.00;;;21.80;53.10;;;;;;3160431;28;20048;-82
2021/05/11 02:23:50;;;;;;;1.13;0.80;;;21.80;53.10;;;;;;3160659;28;20036;-81
2021/05/11 02:25:21;;;;;;;1.30;0.80;;;21.80;53.10;;;;;;3160483;28;20052;-81
2021/05/11 02:26:53;;;;;;;1.02;0.73;;;21.80;53.10;;;;;;3159918;28;20222;-79
2021/05/11 02:28:24;;;;;;;1.00;0.70;;;21.80;53.10;;;;;;3160085;28;20067;-80
2021/05/11 02:29:55;;;;;;;1.00;0.80;;;21.80;53.10;;;;;;3160040;28;20052;-81
2021/05/11 02:31:26;;;;;;;0.70;0.70;;;21.80;53.10;;;;;;3159178;28;20052;-81
2021/05/11 02:32:57;;;;;;;1.02;0.80;;;21.80;53.10;;;;;;3160164;28;20086;-81
2021/05/11 02:34:28;;;;;;;1.02;0.77;;;21.80;53.10;;;;;;3160254;28;20519;-80
2021/05/11 02:35:59;;;;;;;0.80;0.70;;;21.80;53.10;;;;;;3160332;28;20515;-81
2021/05/11 02:37:30;;;;;;;1.20;0.90;;;21.80;53.10;;;;;;3159556;28;20120;-82
2021/05/11 02:39:01;;;;;;;1.20;0.77;;;21.80;53.10;;;;;;3160239;28;20047;-81
2021/05/11 02:40:32;;;;;;;1.30;0.80;;;21.80;53.10;;;;;;3159998;28;20059;-81
2021/05/11 02:42:05;;;;;;;1.48;0.75;;;21.80;53.10;;;;;;3159747;28;20522;-82
2021/05/11 02:43:38;;;;;;;1.52;0.90;;;21.80;53.10;;;;;;3160259;28;20067;-82
2021/05/11 02:45:11;;;;;;;0.85;0.80;;;21.80;53.10;;;;;;3159259;28;20044;-81
2021/05/11 02:46:42;;;;;;;1.70;0.95;;;21.80;53.10;;;;;;3159569;28;20537;-82
2021/05/11 02:48:13;;;;;;;0.90;0.60;;;21.80;53.10;;;;;;3160203;28;20178;-81
2021/05/11 02:49:45;;;;;;;1.48;0.80;;;21.80;53.00;;;;;;3159979;28;20052;-80
2021/05/11 02:51:16;;;;;;;1.27;0.80;;;21.80;53.10;;;;;;3159576;28;20051;-81
2021/05/11 02:52:48;;;;;;;1.58;0.90;;;21.80;53.10;;;;;;3160026;28;20072;-81
2021/05/11 02:54:19;;;;;;;0.88;0.70;;;21.80;53.10;;;;;;3160240;28;20086;-81
2021/05/11 02:55:50;;;;;;;0.70;0.70;;;21.80;53.00;;;;;;3160090;28;20101;-81
2021/05/11 02:57:21;;;;;;;1.08;0.85;;;21.80;53.10;;;;;;3159218;28;20098;-81
2021/05/11 02:58:53;;;;;;;1.17;0.77;;;21.80;53.00;;;;;;3159926;28;20529;-78
2021/05/11 03:00:25;;;;;;;1.20;0.80;;;21.80;53.00;;;;;;3159254;28;20063;-81
2021/05/11 03:01:56;;;;;;;0.80;0.70;;;21.80;53.10;;;;;;3158949;28;20500;-80
2021/05/11 03:03:27;;;;;;;1.52;0.80;;;21.80;53.00;;;;;;3159763;28;20121;-81
2021/05/11 03:04:58;;;;;;;1.00;0.70;;;21.80;53.00;;;;;;3159918;28;20076;-81
2021/05/11 03:06:29;;;;;;;0.73;0.70;;;21.80;53.00;;;;;;3159660;28;20060;-81
2021/05/11 03:08:00;;;;;;;1.42;0.70;;;21.80;53.10;;;;;;3159778;28;20072;-81
2021/05/11 03:09:31;;;;;;;0.90;0.68;;;21.80;53.00;;;;;;3159686;28;20562;-79
2021/05/11 03:11:02;;;;;;;1.15;0.70;;;21.80;53.00;;;;;;3159750;28;20137;-82
2021/05/11 03:12:33;;;;;;;1.10;0.63;;;21.80;53.00;;;;;;3159368;28;20483;-81
2021/05/11 03:14:05;;;;;;;1.50;0.80;;;21.80;53.00;;;;;;3160011;28;20066;-80
2021/05/11 03:15:36;;;;;;;1.27;0.73;;;21.80;53.00;;;;;;3159277;28;20047;-81
2021/05/11 03:17:06;;;;;;;0.88;0.70;;;21.80;53.00;;;;;;3159329;28;20048;-82
2021/05/11 03:18:37;;;;;;;1.33;0.85;;;21.80;53.00;;;;;;3159834;28;20070;-81
2021/05/11 03:20:09;;;;;;;1.30;0.85;;;21.80;53.00;;;;;;3159512;28;20083;-82
2021/05/11 03:21:41;;;;;;;0.80;0.80;;;21.80;53.00;;;;;;3159309;28;20040;-80
2021/05/11 03:23:12;;;;;;;0.98;0.70;;;21.80;53.10;;;;;;3160054;28;20044;-81
2021/05/11 03:24:44;;;;;;;0.80;0.70;;;21.80;53.00;;;;;;3159867;28;20075;-80
2021/05/11 03:26:15;;;;;;;0.63;0.60;;;21.80;53.10;;;;;;3159198;28;20048;-81
2021/05/11 03:27:47;;;;;;;0.95;0.73;;;21.80;53.00;;;;;;3159723;28;20519;-81
2021/05/11 03:29:18;;;;;;;0.93;0.75;;;21.80;53.00;;;;;;3159701;28;20071;-81
2021/05/11 03:30:49;;;;;;;1.15;0.70;;;21.80;53.00;;;;;;3158358;28;20078;-82
2021/05/11 03:33:53;;;;;;;;;;;21.80;53.00;;;;;;3119717;28;20645;-76
2021/05/11 03:35:24;;;;;;;1.25;0.70;;;21.80;53.00;;;;;;3113182;28;19926;-76
2021/05/11 03:36:55;;;;;;;1.20;0.70;;;21.80;53.00;;;;;;3109057;28;20096;-76
2021/05/11 03:38:26;;;;;;;0.93;0.70;;;21.80;53.00;;;;;;3109564;28;20078;-76
2021/05/11 03:39:57;;;;;;;0.95;0.60;;;21.80;53.00;;;;;;3109079;28;20073;-75
2021/05/11 03:41:34;;;;;;;0.93;0.60;;;21.80;53.00;;;;;;3108997;28;20061;-76
2021/05/11 03:43:10;;;;;;;1.30;0.75;;;21.80;53.00;;;;;;3115523;28;20116;-76
2021/05/11 03:44:43;;;;;;;0.98;0.80;;;21.80;53.00;;;;;;3121745;28;20426;-76
2021/05/11 03:46:14;;;;;;;;;;;21.80;53.00;;;;;;3120892;28;20080;-76
2021/05/11 03:47:47;;;;;;;0.90;0.80;;;21.80;53.00;;;;;;3121399;28;20374;-76
2021/05/11 03:49:18;;;;;;;0.77;0.65;;;21.70;53.00;;;;;;3121352;28;20053;-76
2021/05/11 03:50:49;;;;;;;1.13;0.80;;;21.80;53.00;;;;;;3121460;28;20084;-76
2021/05/11 03:52:20;;;;;;;1.10;0.60;;;21.80;53.00;;;;;;3120784;28;20081;-76
2021/05/11 03:53:51;;;;;;;1.20;0.80;;;21.80;53.00;;;;;;3121522;28;20083;-75
2021/05/11 03:55:22;;;;;;;0.95;0.60;;;21.80;53.00;;;;;;3121592;28;20466;-76
2021/05/11 03:56:53;;;;;;;1.38;0.75;;;21.80;53.00;;;;;;3121169;28;20132;-76
2021/05/11 03:58:25;;;;;;;0.73;0.70;;;21.80;53.00;;;;;;3121504;28;20077;-76
2021/05/11 03:59:56;;;;;;;1.42;0.70;;;21.80;53.00;;;;;;3121183;28;20056;-78
2021/05/11 04:01:27;;;;;;;1.38;0.80;;;21.80;53.00;;;;;;3120359;28;20080;-76
2021/05/11 04:02:58;;;;;;;1.00;0.70;;;21.80;53.00;;;;;;3121228;28;20042;-75
2021/05/11 04:04:29;;;;;;;1.17;0.82;;;21.80;53.00;;;;;;3121463;28;20073;-75
2021/05/11 04:06:01;;;;;;;1.35;0.77;;;21.80;53.00;;;;;;3121407;28;20513;-76
2021/05/11 04:07:32;;;;;;;0.70;0.70;;;21.80;53.00;;;;;;3120967;28;20152;-76
2021/05/11 04:09:10;;;;;;;0.80;0.60;;;21.80;53.00;;;;;;3121374;28;20052;-76
2021/05/11 04:10:44;;;;;;;1.40;0.70;;;21.80;53.00;;;;;;3121073;28;20076;-76
2021/05/11 04:12:32;;;;;;;1.00;0.80;;;21.80;53.00;;;;;;3120888;28;20045;-76
2021/05/11 04:14:19;;;;;;;1.27;0.73;;;21.70;52.90;;;;;;3122560;28;20553;-75
2021/05/11 04:16:12;;;;;;;0.95;0.65;;;21.80;53.00;;;;;;3123123;28;20133;-76
2021/05/11 04:17:44;;;;;;;0.98;0.63;;;21.70;53.50;;;;;;3123761;28;20064;-76
2021/05/11 04:19:15;;;;;;;1.15;0.75;;;21.80;53.00;;;;;;3123845;28;20076;-76
2021/05/11 04:20:47;;;;;;;1.15;0.75;;;21.70;52.90;;;;;;3123447;28;20102;-76
2021/05/11 04:22:17;;;;;;;0.60;0.50;;;21.80;53.00;;;;;;3123309;28;20057;-76
2021/05/11 04:23:50;;;;;;;1.48;0.85;;;21.70;52.90;;;;;;3123705;28;20490;-76
2021/05/11 04:25:22;;;;;;;0.77;0.60;;;21.80;52.90;;;;;;3123745;28;20049;-76
2021/05/11 04:26:53;;;;;;;0.88;0.70;;;21.80;52.90;;;;;;3123217;28;20111;-76
2021/05/11 04:28:24;;;;;;;1.58;0.75;;;21.80;52.90;;;;;;3123846;28;20080;-76
2021/05/11 04:29:59;;;;;;;0.80;0.60;;;21.80;52.90;;;;;;3123380;28;20728;-76
2021/05/11 04:31:33;;;;;;;0.88;0.70;;;21.80;52.90;;;;;;3122370;28;20073;-75
2021/05/11 04:33:05;;;;;;;1.35;0.60;;;21.70;52.90;;;;;;3123284;28;20045;-76
2021/05/11 04:34:35;;;;;;;2.30;0.95;;;21.70;52.90;;;;;;3123770;28;20083;-76
2021/05/11 04:36:07;;;;;;;1.52;0.80;;;21.80;52.90;;;;;;3123173;28;20052;-76
2021/05/11 04:37:38;;;;;;;0.75;0.60;;;21.80;52.90;;;;;;3123588;28;20060;-76
2021/05/11 04:39:09;;;;;;;1.65;0.50;;;21.80;52.90;;;;;;3123772;28;20528;-76
2021/05/11 04:40:40;;;;;;;1.67;0.90;;;21.80;52.90;;;;;;3123564;28;20528;-75
2021/05/11 04:42:11;;;;;;;0.88;0.70;;;21.80;52.90;;;;;;3123072;28;20069;-76
2021/05/11 04:43:43;;;;;;;1.50;0.77;;;21.80;52.90;;;;;;3123194;28;20041;-75
2021/05/11 04:45:19;;;;;;;0.60;0.60;;;21.80;52.90;;;;;;3122887;28;20045;-76
2021/05/11 04:46:56;;;;;;;1.25;0.80;;;21.70;52.90;;;;;;3123072;28;20513;-76
2021/05/11 04:48:27;;;;;;;1.77;0.70;;;21.70;52.80;;;;;;3123575;28;20044;-76
2021/05/11 04:49:58;;;;;;;1.25;0.60;;;21.80;52.90;;;;;;3123238;28;20080;-76
2021/05/11 04:51:29;;;;;;;1.15;0.60;;;21.70;52.90;;;;;;3123099;28;20037;-76
2021/05/11 04:53:00;;;;;;;0.80;0.60;;;21.70;52.90;;;;;;3123246;28;20123;-76
2021/05/11 04:54:31;;;;;;;0.70;0.60;;;21.80;52.90;;;;;;3123575;28;20146;-76
2021/05/11 04:56:02;;;;;;;0.77;0.63;;;21.80;52.90;;;;;;3123311;28;20081;-76
2021/05/11 04:57:33;;;;;;;1.20;0.75;;;21.80;52.90;;;;;;3122858;28;20092;-77
2021/05/11 04:59:04;;;;;;;1.58;0.70;;;21.80;53.00;;;;;;3123267;28;20572;-77
2021/05/11 05:00:37;;;;;;;1.15;0.88;;;21.80;52.90;;;;;;3122272;28;20531;-75
2021/05/11 05:02:08;;;;;;;0.77;0.60;;;21.70;52.90;;;;;;3122866;28;20111;-76
2021/05/11 05:03:40;;;;;;;1.02;0.70;;;21.70;52.90;;;;;;3123371;28;20053;-75
2021/05/11 05:05:12;;;;;;;1.15;0.73;;;21.70;52.90;;;;;;3123353;28;20068;-75
2021/05/11 05:06:43;;;;;;;0.88;0.70;;;21.80;52.90;;;;;;3122804;28;20704;-76
2021/05/11 05:08:14;;;;;;;0.93;0.77;;;21.80;52.90;;;;;;3123474;28;20091;-76
2021/05/11 05:09:45;;;;;;;1.88;0.88;;;21.70;52.80;;;;;;3123180;28;20159;-76
2021/05/11 05:11:17;;;;;;;0.85;0.57;;;21.70;52.90;;;;;;3122922;28;20046;-76
2021/05/11 05:12:48;;;;;;;0.93;0.70;;;21.70;52.90;;;;;;3122935;28;20056;-76
2021/05/11 05:14:19;;;;;;;1.27;0.70;;;21.70;52.90;;;;;;3123421;28;20136;-76
2021/05/11 05:15:51;;;;;;;1.13;0.60;;;21.70;52.90;;;;;;3122239;28;20513;-76
2021/05/11 05:17:22;;;;;;;1.35;0.77;;;21.70;52.80;;;;;;3122659;28;20107;-76
2021/05/11 05:18:53;;;;;;;1.33;0.80;;;21.70;52.80;;;;;;3123124;28;20081;-76
2021/05/11 05:20:24;;;;;;;0.98;0.60;;;21.70;52.80;;;;;;3123070;28;20121;-75
2021/05/11 05:21:55;;;;;;;1.60;0.68;;;21.80;52.90;;;;;;3122570;28;20062;-76
2021/05/11 05:23:33;;;;;;;1.25;0.60;;;21.70;52.80;;;;;;3123167;28;20041;-76
2021/05/11 05:25:11;;;;;;;0.90;0.70;;;21.80;52.80;;;;;;3122719;28;20486;-76
2021/05/11 05:26:46;;;;;;;0.82;0.60;;;21.70;52.80;;;;;;3122627;28;20399;-77
2021/05/11 05:28:17;;;;;;;1.45;0.70;;;21.70;52.80;;;;;;3123086;28;20046;-76
2021/05/11 05:29:48;;;;;;;0.70;0.70;;;21.80;52.80;;;;;;3122593;28;20049;-76
2021/05/11 05:31:20;;;;;;;1.10;0.80;;;21.70;52.80;;;;;;3121828;28;20045;-76
2021/05/11 05:32:53;;;;;;;1.35;0.60;;;21.80;52.90;;;;;;3122789;28;20509;-76
2021/05/11 05:34:24;;;;;;;0.70;0.50;;;21.80;52.80;;;;;;3123032;28;20103;-76
2021/05/11 05:35:55;;;;;;;0.90;0.70;;;21.80;52.80;;;;;;3122923;28;20081;-76
2021/05/11 05:37:26;;;;;;;1.10;0.70;;;21.80;52.80;;;;;;3122471;28;20041;-76
2021/05/11 05:38:57;;;;;;;1.50;0.70;;;21.80;52.80;;;;;;3123109;28;20080;-76
2021/05/11 05:40:28;;;;;;;1.23;0.70;;;21.80;52.80;;;;;;3122746;28;20045;-76
2021/05/11 05:41:59;;;;;;;1.25;0.75;;;21.80;52.80;;;;;;3122266;28;20513;-75
2021/05/11 05:43:30;;;;;;;0.85;0.60;;;21.80;52.80;;;;;;3122890;28;20049;-76
2021/05/11 05:45:01;;;;;;;0.98;0.80;;;21.80;52.80;;;;;;3122786;28;20081;-76
2021/05/11 05:46:33;;;;;;;1.30;0.90;;;21.80;52.80;;;;;;3121277;28;20079;-75
2021/05/11 05:48:04;;;;;;;1.87;0.97;;;21.80;52.80;;;;;;3122878;28;20050;-77
2021/05/11 05:49:42;;;;;;;1.42;0.80;;;21.80;52.80;;;;;;3122670;28;20284;-76
2021/05/11 05:51:14;;;;;;;1.05;0.57;;;21.80;52.80;;;;;;3122423;28;20048;-76
2021/05/11 05:52:45;;;;;;;1.25;0.68;;;21.80;52.80;;;;;;3123130;28;20053;-77
2021/05/11 05:54:16;;;;;;;0.85;0.60;;;21.80;52.80;;;;;;3123642;28;20094;-76
2021/05/11 05:55:47;;;;;;;1.27;0.88;;;21.80;52.80;;;;;;3123432;28;20088;-76
2021/05/11 05:57:18;;;;;;;1.45;0.70;;;21.80;52.80;;;;;;3122291;28;20533;-76
2021/05/11 05:58:49;;;;;;;0.85;0.68;;;21.80;52.80;;;;;;3122705;28;20508;-76
2021/05/11 06:00:21;;;;;;;1.50;0.70;;;21.80;52.80;;;;;;3121776;28;20151;-75
2021/05/11 06:01:53;;;;;;;0.90;0.73;;;21.80;52.80;;;;;;3122149;28;20046;-76
2021/05/11 06:03:34;;;;;;;1.00;0.60;;;21.80;52.80;;;;;;3122469;28;20047;-76
2021/05/11 06:05:06;;;;;;;0.93;0.70;;;21.80;52.80;;;;;;3122526;28;20525;-75
2021/05/11 06:06:37;;;;;;;1.55;0.75;;;21.80;52.80;;;;;;3122172;28;20107;-76
2021/05/11 06:08:07;;;;;;;0.80;0.63;;;21.80;52.80;;;;;;3122575;28;20084;-76
2021/05/11 06:09:39;;;;;;;1.15;0.65;;;21.80;52.80;;;;;;3122328;28;20413;-76
2021/05/11 06:11:14;;;;;;;1.35;0.80;;;21.80;52.80;;;;;;3121957;28;20060;-76
2021/05/11 06:12:49;;;;;;;0.90;0.63;;;21.80;52.80;;;;;;3122519;28;20053;-76
2021/05/11 06:14:26;;;;;;;1.55;0.60;;;21.80;52.80;;;;;;3122558;28;20088;-76
2021/05/11 06:17:47;;;;;;;1.25;0.70;;;21.80;52.80;;;;;;3122261;28;20077;-76
2021/05/11 06:19:18;;;;;;;0.95;0.60;;;21.80;52.80;;;;;;3122518;28;20563;-76
2021/05/11 06:20:49;;;;;;;0.85;0.63;;;21.70;52.70;;;;;;3122280;28;20103;-76
2021/05/11 06:22:20;;;;;;;1.15;0.70;;;21.80;52.80;;;;;;3121747;28;20045;-76
2021/05/11 06:23:51;;;;;;;1.65;0.80;;;21.80;52.70;;;;;;3122515;28;20050;-76
2021/05/11 06:25:22;;;;;;;1.60;0.70;;;21.80;52.70;;;;;;3122522;28;20688;-76
2021/05/11 06:26:53;;;;;;;0.98;0.57;;;21.80;52.70;;;;;;3121660;28;20064;-76
2021/05/11 06:28:25;;;;;;;1.27;0.85;;;21.80;52.80;;;;;;3122438;28;20050;-75
2021/05/11 06:29:56;;;;;;;0.90;0.70;;;21.70;52.70;;;;;;3122072;28;20056;-76
2021/05/11 06:31:27;;;;;;;1.20;0.68;;;21.80;52.70;;;;;;3121123;28;20064;-75
2021/05/11 06:32:59;;;;;;;0.80;0.63;;;21.80;52.70;;;;;;3121941;28;20089;-76
2021/05/11 06:34:31;;;;;;;0.90;0.65;;;21.70;52.70;;;;;;3122271;28;20083;-75
2021/05/11 06:36:02;;;;;;;1.10;0.80;;;21.80;52.70;;;;;;3121963;28;20148;-76
2021/05/11 06:37:32;;;;;;;1.25;0.70;;;21.80;52.70;;;;;;3121432;28;20045;-76
2021/05/11 06:39:06;;;;;;;1.17;0.68;;;21.80;52.70;;;;;;3122119;28;20057;-76
2021/05/11 06:40:39;;;;;;;0.63;0.52;;;21.80;52.70;;;;;;3121951;28;20088;-76
2021/05/11 06:42:10;;;;;;;1.92;0.80;;;21.80;52.70;;;;;;3121784;28;20092;-76
2021/05/11 06:43:43;;;;;;;1.05;0.70;;;21.80;52.70;;;;;;3122197;28;20046;-76
2021/05/11 06:45:34;;;;;;;1.20;0.70;;;21.80;52.70;;;;;;3121472;28;20077;-75
2021/05/11 06:47:30;;;;;;;0.82;0.60;;;21.70;52.60;;;;;;3121758;28;20060;-75
2021/05/11 06:49:15;;;;;;;1.10;0.60;;;21.80;52.70;;;;;;3122115;28;20132;-76
2021/05/11 06:52:57;;;;;;;0.95;0.68;;;21.80;52.70;;;;;;3121330;28;20068;-75
2021/05/11 06:54:28;;;;;;;1.60;0.70;;;21.80;52.70;;;;;;3122250;28;20175;-77
2021/05/11 06:55:59;;;;;;;0.60;0.55;;;21.80;52.70;;;;;;3121993;28;20061;-76
2021/05/11 06:57:30;;;;;;;1.00;0.60;;;21.80;52.70;;;;;;3121557;28;20417;-76
2021/05/11 06:59:01;;;;;;;1.00;0.70;;;21.80;52.70;;;;;;3121984;28;20053;-76
2021/05/11 07:00:32;;;;;;;1.17;0.60;;;21.70;52.60;;;;;;3121195;28;20049;-76
2021/05/11 07:02:03;;;;;;;1.25;0.77;;;21.80;52.70;;;;;;3121415;28;20057;-76
2021/05/11 07:03:34;;;;;;;0.70;0.50;;;21.80;52.70;;;;;;3121901;28;20556;-75
2021/05/11 07:05:07;;;;;;;0.85;0.60;;;21.80;52.70;;;;;;3121817;28;20061;-76
2021/05/11 07:06:39;;;;;;;1.15;0.80;;;21.80;52.70;;;;;;3121480;28;20049;-76
2021/05/11 07:08:14;;;;;;;0.93;0.70;;;21.80;52.70;;;;;;3121927;28;20465;-76
2021/05/11 07:09:59;;;;;;;0.80;0.70;;;21.80;52.70;;;;;;3121485;28;20056;-75
2021/05/11 07:13:07;;;;;;;1.75;0.70;;;21.80;52.60;;;;;;3121499;28;20516;-76
2021/05/11 07:13:22;;;;;;;1.92;0.57;;;21.80;52.70;;;;;;3121611;28;20076;-75
2021/05/11 07:14:53;;;;;;;1.00;0.68;;;21.80;52.70;;;;;;3121790;28;20132;-75
2021/05/11 07:16:24;;;;;;;0.82;0.63;;;21.80;52.60;;;;;;3120710;28;20461;-76
2021/05/11 07:18:05;;;;;;;0.82;0.60;;;21.80;52.60;;;;;;3121745;28;20076;-75
2021/05/11 07:19:36;;;;;;;0.68;0.50;;;21.80;52.70;;;;;;3121607;28;20057;-75
2021/05/11 07:21:08;;;;;;;1.60;0.80;;;21.70;52.60;;;;;;3121512;28;20179;-76
2021/05/11 07:22:39;;;;;;;1.30;0.63;;;21.70;52.60;;;;;;3121569;28;20108;-76
2021/05/11 07:24:10;;;;;;;1.10;0.70;;;21.70;52.60;;;;;;3121909;28;20045;-76
2021/05/11 07:25:45;;;;;;;0.98;0.60;;;21.70;52.60;;;;;;3121851;28;20057;-75
2021/05/11 07:27:33;;;;;;;0.70;0.57;;;21.80;52.60;;;;;;3121211;28;20048;-76
2021/05/11 07:29:09;;;;;;;1.02;0.57;;;21.80;52.60;;;;;;3121587;28;20064;-76
2021/05/11 07:30:40;;;;;;;1.10;0.52;;;21.70;52.60;;;;;;3120696;28;20452;-76
2021/05/11 07:32:12;;;;;;;0.65;0.50;;;21.80;52.60;;;;;;3121222;28;20049;-76
2021/05/11 07:33:44;;;;;;;1.33;0.70;;;21.70;52.60;;;;;;3121478;28;20457;-75
2021/05/11 07:35:15;;;;;;;1.67;0.70;;;21.70;52.60;;;;;;3121646;28;20049;-75
2021/05/11 07:36:48;;;;;;;1.38;0.60;;;21.70;52.50;;;;;;3121116;28;20493;-76
2021/05/11 07:38:19;;;;;;;0.98;0.60;;;21.70;52.50;;;;;;3121667;28;20137;-76
2021/05/11 07:39:50;;;;;;;1.33;0.60;;;21.80;52.90;;;;;;3121260;28;20209;-76
2021/05/11 07:41:21;;;;;;;0.88;0.50;;;21.70;52.50;;;;;;3121325;28;20045;-75
2021/05/11 07:42:52;;;;;;;0.98;0.60;;;21.80;52.60;;;;;;3121413;28;20527;-75
2021/05/11 07:44:23;;;;;;;1.10;0.52;;;21.70;52.50;;;;;;3121597;28;20056;-78
2021/05/11 07:48:10;;;;;;;1.10;0.60;;;21.70;52.50;;;;;;3115586;28;20088;-76
2021/05/11 07:52:01;;;;;;;1.00;0.60;;;21.80;52.60;;;;;;3120935;28;20092;-78
2021/05/11 08:03:25;;;;;;;0.98;0.70;;;21.70;52.50;;;;;;3114590;28;20049;-75
2021/05/11 08:05:02;;;;;;;1.38;0.70;;;21.70;52.50;;;;;;3121558;28;20050;-75
2021/05/11 08:10:29;;;;;;;2.47;0.68;;;21.70;52.50;;;;;;3121080;28;20049;-76
2021/05/11 08:15:40;;;;;;;1.48;0.77;;;21.70;52.50;;;;;;3121569;28;20038;-76
2021/05/11 08:17:11;;;;;;;1.85;0.70;;;21.70;52.50;;;;;;3121311;28;20045;-76
2021/05/11 08:18:46;;;;;;;0.65;0.50;;;21.70;52.50;;;;;;3121285;28;20054;-76
2021/05/11 08:20:34;;;;;;;1.88;0.60;;;21.70;52.50;;;;;;3121137;28;20068;-76
2021/05/11 08:22:21;;;;;;;0.98;0.47;;;21.70;52.50;;;;;;3120975;28;20045;-77
2021/05/11 08:27:42;;;;;;;1.10;0.60;;;21.70;52.50;;;;;;3121158;28;20085;-76
2021/05/11 08:29:13;;;;;;;0.88;0.60;;;21.70;52.50;;;;;;3121409;28;20081;-75
2021/05/11 08:30:45;;;;;;;1.00;0.60;;;21.70;52.50;;;;;;3120236;28;20054;-76
2021/05/11 08:32:16;;;;;;;0.75;0.50;;;21.70;52.50;;;;;;3120881;28;20458;-76
2021/05/11 08:33:47;;;;;;;1.42;0.63;;;21.70;52.50;;;;;;3120997;28;20045;-76
2021/05/11 08:35:18;;;;;;;1.20;0.70;;;21.70;52.50;;;;;;3121216;28;20057;-76
2021/05/11 08:36:49;;;;;;;0.98;0.60;;;21.70;52.50;;;;;;3120743;28;20053;-77
2021/05/11 08:38:20;;;;;;;1.45;0.80;;;21.70;52.50;;;;;;3120973;28;20133;-76
2021/05/11 08:39:51;;;;;;;0.80;0.50;;;21.70;52.50;;;;;;3120868;28;20049;-76
2021/05/11 08:41:23;;;;;;;0.90;0.60;;;21.70;52.50;;;;;;3120856;28;20053;-75
2021/05/11 08:42:55;;;;;;;0.97;0.50;;;21.70;52.50;;;;;;3121186;28;20058;-75
2021/05/11 08:44:26;;;;;;;1.35;0.63;;;21.70;52.50;;;;;;3121288;28;20085;-76
2021/05/11 08:45:58;;;;;;;1.42;0.60;;;21.70;52.50;;;;;;3120397;28;20547;-76
2021/05/11 08:47:30;;;;;;;1.00;0.67;;;21.70;52.50;;;;;;3120640;28;20128;-75
2021/05/11 08:49:04;;;;;;;1.05;0.65;;;21.70;52.50;;;;;;3121356;28;20315;-75
2021/05/11 08:50:37;;;;;;;0.90;0.55;;;21.70;52.50;;;;;;3121052;28;20049;-77
2021/05/11 08:52:14;;;;;;;1.30;0.60;;;21.70;52.50;;;;;;3120621;28;20061;-77
2021/05/11 09:05:00;;;;;;;0.95;0.50;;;21.70;52.50;;;;;;3123328;28;20053;-76
2021/05/11 09:06:39;;;;;;;0.75;0.55;;;21.70;52.40;;;;;;3122907;28;20513;-76
2021/05/11 09:08:55;;;;;;;1.02;0.57;;;21.70;52.50;;;;;;3123263;28;20045;-76
2021/05/11 09:24:20;;;;;;;0.60;0.60;;;21.70;52.40;;;;;;3085205;28;20043;-76
2021/05/11 09:25:59;;;;;;;1.17;0.60;;;21.70;52.40;;;;;;3084979;28;20077;-75
2021/05/11 09:27:42;;;;;;;0.90;0.50;;;21.70;52.40;;;;;;3084549;28;20057;-75
2021/05/11 09:29:27;;;;;;;1.10;0.60;;;21.70;52.40;;;;;;3094722;28;20134;-76
2021/05/11 09:31:06;;;;;;;0.63;0.50;;;21.70;52.40;;;;;;3121982;28;20049;-76
2021/05/11 09:32:48;;;;;;;0.88;0.55;;;21.70;52.40;;;;;;3122598;28;20067;-76
2021/05/11 09:34:27;;;;;;;0.73;0.60;;;21.70;52.40;;;;;;3123049;28;20041;-76
2021/05/11 09:45:24;;;;;;;1.10;0.65;;;21.70;52.40;;;;;;3122079;28;20049;-76
2021/05/11 09:54:16;;;;;;;1.60;0.70;;;21.70;52.40;;;;;;3122315;28;20049;-75
2021/05/11 09:54:33;;;;;;;1.40;0.80;;;21.70;52.40;;;;;;3122484;28;20517;-76
2021/05/11 09:56:22;;;;;;;1.02;0.63;;;21.70;52.30;;;;;;3122721;28;20045;-75
2021/05/11 09:57:57;;;;;;;0.80;0.68;;;21.70;52.30;;;;;;3122499;28;20045;-76